createdAt,value
2023-03-14T00:00:24.290Z,97620.94
2023-03-14T00:01:27.667Z,97618.13
2023-03-14T00:02:30.463Z,97618.63
2023-03-14T00:03:33.536Z,97621.47
2023-03-14T00:04:36.483Z,97624.41
2023-03-14T00:05:38.691Z,97625.03
2023-03-14T00:06:41.134Z,97622.63
2023-03-14T00:07:43.572Z,97630.50
2023-03-14T00:08:46.619Z,97624.59
2023-03-14T00:09:48.800Z,97626.41
2023-03-14T00:10:51.119Z,97625.56
2023-03-14T00:11:56.345Z,97622.94
2023-03-14T00:13:08.601Z,97625.13
2023-03-14T00:14:11.150Z,97635.94
2023-03-14T00:15:13.711Z,97634.78
2023-03-14T00:16:16.148Z,97630.19
2023-03-14T00:17:18.700Z,97617.69
2023-03-14T00:18:21.226Z,97622.31
2023-03-14T00:19:23.951Z,97629.84
2023-03-14T00:20:26.241Z,97627.03
2023-03-14T00:21:28.583Z,97617.56
2023-03-14T00:22:32.496Z,97630.41
2023-03-14T00:23:37.006Z,97626.19
2023-03-14T00:24:42.072Z,97620.00
2023-03-14T00:25:45.127Z,97624.84
2023-03-14T00:26:47.771Z,97601.31
2023-03-14T00:27:52.331Z,97607.19
2023-03-14T00:28:55.390Z,97599.84
2023-03-14T00:29:58.128Z,97596.97
2023-03-14T00:31:03.119Z,97602.38
2023-03-14T00:32:05.901Z,97600.34
2023-03-14T00:33:08.474Z,97609.09
2023-03-14T00:34:10.882Z,97609.81
2023-03-14T00:35:13.328Z,97612.44
2023-03-14T00:36:18.915Z,97617.56
2023-03-14T00:37:21.414Z,97603.19
2023-03-14T00:38:25.195Z,97603.94
2023-03-14T00:39:27.382Z,97601.53
2023-03-14T00:40:29.604Z,97610.34
2023-03-14T00:41:35.317Z,97622.06
2023-03-14T00:42:39.398Z,97616.00
2023-03-14T00:43:41.906Z,97612.63
2023-03-14T00:44:44.126Z,97619.59
2023-03-14T00:45:46.370Z,97616.63
2023-03-14T00:46:48.979Z,97613.38
2023-03-14T00:47:51.322Z,97622.63
2023-03-14T00:48:53.528Z,97613.47
2023-03-14T00:49:55.946Z,97610.09
2023-03-14T00:50:58.478Z,97617.03
2023-03-14T00:52:00.909Z,97624.09
2023-03-14T00:53:03.584Z,97618.28
2023-03-14T00:54:05.829Z,97626.16
2023-03-14T00:55:08.579Z,97625.44
2023-03-14T00:56:12.993Z,97624.38
2023-03-14T00:57:15.554Z,97623.03
2023-03-14T00:58:19.498Z,97627.09
2023-03-14T00:59:22.910Z,97635.00
2023-03-14T01:00:25.162Z,97639.19
2023-03-14T01:01:27.600Z,97634.69
2023-03-14T01:02:29.898Z,97643.91
2023-03-14T01:03:32.678Z,97657.25
2023-03-14T01:04:35.713Z,97643.06
2023-03-14T01:05:38.530Z,97649.16
2023-03-14T01:06:40.770Z,97638.44
2023-03-14T01:07:43.097Z,97636.97
2023-03-14T01:08:46.338Z,97637.94
2023-03-14T01:09:53.006Z,97638.44
2023-03-14T01:10:55.199Z,97634.44
2023-03-14T01:11:57.905Z,97637.91
2023-03-14T01:13:00.449Z,97646.72
2023-03-14T01:14:03.783Z,97637.06
2023-03-14T01:15:06.870Z,97639.06
2023-03-14T01:16:10.744Z,97641.81
2023-03-14T01:17:13.524Z,97628.47
2023-03-14T01:18:15.852Z,97632.75
2023-03-14T01:19:20.682Z,97630.94
2023-03-14T01:20:22.983Z,97628.81
2023-03-14T01:21:28.137Z,97627.91
2023-03-14T01:22:30.719Z,97629.59
2023-03-14T01:23:33.001Z,97624.44
2023-03-14T01:24:35.251Z,97632.09
2023-03-14T01:25:42.262Z,97628.53
2023-03-14T01:26:45.573Z,97612.75
2023-03-14T01:27:48.062Z,97612.66
2023-03-14T01:28:52.908Z,97605.84
2023-03-14T01:29:55.458Z,97586.50
2023-03-14T01:31:04.622Z,97584.81
2023-03-14T01:32:07.102Z,97576.94
2023-03-14T01:33:10.384Z,97579.06
2023-03-14T01:34:12.691Z,97570.34
2023-03-14T01:35:15.243Z,97573.91
2023-03-14T01:36:17.950Z,97571.41
2023-03-14T01:37:21.536Z,97582.00
2023-03-14T01:38:24.518Z,97581.28
2023-03-14T01:39:27.398Z,97580.03
2023-03-14T01:40:30.376Z,97582.66
2023-03-14T01:41:33.206Z,97594.66
2023-03-14T01:42:36.820Z,97584.56
2023-03-14T01:43:39.080Z,97583.63
2023-03-14T01:44:52.832Z,97571.66
2023-03-14T01:46:07.569Z,97571.88
2023-03-14T01:47:15.700Z,97575.47
2023-03-14T01:48:19.434Z,97566.22
2023-03-14T01:49:34.736Z,97568.28
2023-03-14T01:50:45.114Z,97565.88
2023-03-14T01:51:54.921Z,97556.13
2023-03-14T01:52:57.419Z,97557.50
2023-03-14T01:54:34.368Z,97546.56
2023-03-14T01:55:37.531Z,97548.03
2023-03-14T01:56:41.860Z,97543.81
2023-03-14T01:57:50.833Z,97537.75
2023-03-14T01:58:53.846Z,97540.56
2023-03-14T02:00:01.948Z,97546.78
2023-03-14T02:01:05.513Z,97539.50
2023-03-14T02:02:12.501Z,97542.59
2023-03-14T02:03:21.988Z,97532.09
2023-03-14T02:04:26.247Z,97534.72
2023-03-14T02:05:36.098Z,97533.66
2023-03-14T02:06:50.635Z,97534.63
2023-03-14T02:07:56.509Z,97530.19
2023-03-14T02:09:05.007Z,97520.41
2023-03-14T02:10:11.031Z,97526.38
2023-03-14T02:11:13.322Z,97528.81
2023-03-14T02:12:24.455Z,97540.38
2023-03-14T02:13:41.700Z,97531.75
2023-03-14T02:15:11.586Z,97532.19
2023-03-14T02:16:26.399Z,97541.63
2023-03-14T02:18:03.292Z,97542.06
2023-03-14T02:19:54.149Z,97544.06
2023-03-14T02:21:19.460Z,97548.81
2023-03-14T02:22:22.171Z,97539.13
2023-03-14T02:23:45.066Z,97552.16
2023-03-14T02:24:52.125Z,97544.63
2023-03-14T02:26:06.691Z,97546.09
2023-03-14T02:27:08.811Z,97539.25
2023-03-14T02:28:14.225Z,97536.41
2023-03-14T02:29:16.948Z,97526.75
2023-03-14T02:30:23.438Z,97515.41
2023-03-14T02:31:26.172Z,97507.31
2023-03-14T02:32:32.392Z,97504.19
2023-03-14T02:33:36.241Z,97502.34
2023-03-14T02:34:42.718Z,97507.69
2023-03-14T02:35:51.118Z,97512.09
2023-03-14T02:36:55.325Z,97516.28
2023-03-14T02:38:34.042Z,97514.91
2023-03-14T02:39:43.860Z,97507.34
2023-03-14T02:40:46.885Z,97499.25
2023-03-14T02:41:50.244Z,97495.28
2023-03-14T02:42:52.901Z,97501.59
2023-03-14T02:43:55.431Z,97498.66
2023-03-14T02:45:23.255Z,97502.34
2023-03-14T02:46:28.272Z,97496.13
2023-03-14T02:47:31.551Z,97492.53
2023-03-14T02:48:45.433Z,97484.06
2023-03-14T02:49:48.470Z,97476.91
2023-03-14T02:50:53.816Z,97491.69
2023-03-14T02:51:56.473Z,97482.78
2023-03-14T02:52:58.821Z,97486.44
2023-03-14T02:54:01.129Z,97491.09
2023-03-14T02:55:04.441Z,97486.59
2023-03-14T02:56:09.815Z,97496.44
2023-03-14T02:57:12.896Z,97481.75
2023-03-14T02:58:15.835Z,97485.13
2023-03-14T02:59:22.216Z,97487.84
2023-03-14T03:02:07.655Z,97487.53
2023-03-14T03:03:10.072Z,97484.91
2023-03-14T03:04:12.300Z,97475.56
2023-03-14T03:05:14.651Z,97481.69
2023-03-14T03:06:16.943Z,97475.47
2023-03-14T03:07:20.060Z,97476.72
2023-03-14T03:08:24.686Z,97474.94
2023-03-14T03:09:26.940Z,97470.13
2023-03-14T03:10:30.152Z,97472.97
2023-03-14T03:11:32.798Z,97472.97
2023-03-14T03:12:35.473Z,97463.94
2023-03-14T03:13:37.827Z,97455.84
2023-03-14T03:14:41.901Z,97466.44
2023-03-14T03:15:44.796Z,97455.59
2023-03-14T03:16:47.673Z,97448.19
2023-03-14T03:17:50.267Z,97435.06
2023-03-14T03:18:52.511Z,97433.91
2023-03-14T03:19:56.727Z,97441.16
2023-03-14T03:21:05.962Z,97446.16
2023-03-14T03:22:08.195Z,97435.16
2023-03-14T03:23:10.409Z,97427.59
2023-03-14T03:24:14.429Z,97430.31
2023-03-14T03:25:16.932Z,97429.63
2023-03-14T03:26:21.530Z,97434.84
2023-03-14T03:27:23.787Z,97426.66
2023-03-14T03:28:26.069Z,97433.91
2023-03-14T03:29:29.430Z,97419.53
2023-03-14T03:30:31.736Z,97423.41
2023-03-14T03:31:34.108Z,97427.69
2023-03-14T03:32:37.102Z,97416.16
2023-03-14T03:33:39.633Z,97425.81
2023-03-14T03:34:42.366Z,97423.00
2023-03-14T03:35:49.726Z,97415.13
2023-03-14T03:36:59.109Z,97420.03
2023-03-14T03:38:03.351Z,97416.91
2023-03-14T03:39:06.800Z,97420.56
2023-03-14T03:40:10.254Z,97423.19
2023-03-14T03:41:12.937Z,97423.09
2023-03-14T03:42:15.281Z,97424.88
2023-03-14T03:43:17.713Z,97423.91
2023-03-14T03:44:21.800Z,97416.91
2023-03-14T03:45:24.090Z,97412.72
2023-03-14T03:46:30.494Z,97416.50
2023-03-14T03:47:32.834Z,97405.03
2023-03-14T03:48:35.756Z,97406.00
2023-03-14T03:49:40.387Z,97401.81
2023-03-14T03:50:48.542Z,97415.53
2023-03-14T03:51:54.648Z,97397.59
2023-03-14T03:52:56.873Z,97404.44
2023-03-14T03:53:59.075Z,97401.56
2023-03-14T03:55:06.244Z,97389.72
2023-03-14T03:56:09.859Z,97396.88
2023-03-14T03:57:13.202Z,97382.28
2023-03-14T03:58:15.506Z,97390.66
2023-03-14T03:59:17.835Z,97395.16
2023-03-14T04:00:21.638Z,97385.63
2023-03-14T04:01:24.185Z,97394.25
2023-03-14T04:02:30.319Z,97396.63
2023-03-14T04:03:32.725Z,97381.84
2023-03-14T04:04:35.337Z,97391.63
2023-03-14T04:05:38.911Z,97393.06
2023-03-14T04:06:45.996Z,97376.19
2023-03-14T04:07:48.235Z,97382.78
2023-03-14T04:08:56.042Z,97383.09
2023-03-14T04:10:13.576Z,97377.97
2023-03-14T04:11:22.481Z,97381.03
2023-03-14T04:12:31.208Z,97380.09
2023-03-14T04:13:38.860Z,97381.16
2023-03-14T04:14:42.083Z,97375.13
2023-03-14T04:15:53.061Z,97369.38
2023-03-14T04:16:59.344Z,97378.91
2023-03-14T04:18:01.527Z,97374.16
2023-03-14T04:19:04.524Z,97382.16
2023-03-14T04:20:11.655Z,97380.28
2023-03-14T04:21:14.267Z,97366.31
2023-03-14T04:22:23.013Z,97368.72
2023-03-14T04:23:27.212Z,97367.38
2023-03-14T04:24:30.863Z,97371.44
2023-03-14T04:25:33.774Z,97367.38
2023-03-14T04:26:39.527Z,97373.13
2023-03-14T04:27:42.218Z,97377.75
2023-03-14T04:28:52.943Z,97385.50
2023-03-14T04:29:57.180Z,97375.13
2023-03-14T04:31:21.953Z,97381.13
2023-03-14T04:32:24.912Z,97374.41
2023-03-14T04:33:27.217Z,97361.81
2023-03-14T04:34:31.946Z,97366.53
2023-03-14T04:35:34.331Z,97369.38
2023-03-14T04:36:41.713Z,97365.09
2023-03-14T04:37:50.203Z,97366.00
2023-03-14T04:38:53.151Z,97364.03
2023-03-14T04:39:56.884Z,97359.22
2023-03-14T04:41:02.911Z,97350.94
2023-03-14T04:42:07.929Z,97358.09
2023-03-14T04:43:13.115Z,97351.41
2023-03-14T04:44:22.368Z,97349.69
2023-03-14T04:45:28.267Z,97340.28
2023-03-14T04:46:32.906Z,97349.28
2023-03-14T04:47:36.319Z,97346.97
2023-03-14T04:48:39.482Z,97355.19
2023-03-14T04:49:42.846Z,97343.84
2023-03-14T04:50:48.862Z,97343.09
2023-03-14T04:51:52.188Z,97342.28
2023-03-14T04:52:54.814Z,97334.75
2023-03-14T04:53:57.440Z,97338.91
2023-03-14T04:55:00.281Z,97345.41
2023-03-14T04:56:03.723Z,97340.28
2023-03-14T04:57:12.312Z,97343.97
2023-03-14T04:58:15.154Z,97341.53
2023-03-14T04:59:18.874Z,97328.66
2023-03-14T05:00:22.105Z,97340.44
2023-03-14T05:01:32.874Z,97334.94
2023-03-14T05:02:55.338Z,97338.97
2023-03-14T05:04:05.934Z,97323.84
2023-03-14T05:05:30.431Z,97322.09
2023-03-14T05:06:35.906Z,97319.22
2023-03-14T05:08:07.871Z,97303.50
2023-03-14T05:09:21.397Z,97316.59
2023-03-14T05:10:36.148Z,97317.44
2023-03-14T05:12:09.366Z,97315.44
2023-03-14T05:13:22.596Z,97307.25
2023-03-14T05:14:37.289Z,97312.38
2023-03-14T05:16:10.246Z,97315.72
2023-03-14T05:17:27.026Z,97314.91
2023-03-14T05:18:48.259Z,97307.97
2023-03-14T05:20:13.685Z,97312.78
2023-03-14T05:21:34.060Z,97310.66
2023-03-14T05:22:48.283Z,97321.25
2023-03-14T05:24:19.800Z,97317.41
2023-03-14T05:25:50.873Z,97312.78
2023-03-14T05:26:56.034Z,97313.50
2023-03-14T05:28:07.309Z,97316.53
2023-03-14T05:29:24.106Z,97313.66
2023-03-14T05:30:35.175Z,97321.94
2023-03-14T05:31:49.595Z,97303.34
2023-03-14T05:33:03.616Z,97323.84
2023-03-14T05:34:19.385Z,97307.88
2023-03-14T05:35:32.237Z,97311.22
2023-03-14T05:36:55.795Z,97322.75
2023-03-14T05:38:23.820Z,97296.69
2023-03-14T05:39:51.632Z,97296.53
2023-03-14T05:41:19.833Z,97304.06
2023-03-14T05:42:35.608Z,97307.13
2023-03-14T05:44:12.112Z,97295.03
2023-03-14T05:45:32.883Z,97313.31
2023-03-14T05:47:08.553Z,97318.34
2023-03-14T05:48:22.549Z,97313.94
2023-03-14T05:49:35.636Z,97305.50
2023-03-14T05:51:04.404Z,97308.00
2023-03-14T05:52:27.433Z,97301.22
2023-03-14T05:53:43.507Z,97296.41
2023-03-14T05:55:04.820Z,97297.38
2023-03-14T05:56:27.673Z,97294.84
2023-03-14T05:58:05.085Z,97305.84
2023-03-14T05:59:30.481Z,97290.00
2023-03-14T06:00:38.734Z,97283.41
2023-03-14T06:01:54.065Z,97298.19
2023-03-14T06:03:00.232Z,97307.03
2023-03-14T06:04:06.911Z,97300.00
2023-03-14T06:05:09.700Z,97294.75
2023-03-14T06:06:12.246Z,97289.13
2023-03-14T06:07:14.858Z,97293.31
2023-03-14T06:08:18.115Z,97301.19
2023-03-14T06:09:23.863Z,97288.28
2023-03-14T06:10:28.008Z,97290.19
2023-03-14T06:11:30.565Z,97291.97
2023-03-14T06:12:33.124Z,97288.28
2023-03-14T06:13:35.762Z,97292.63
2023-03-14T06:14:38.562Z,97292.34
2023-03-14T06:15:41.012Z,97302.25
2023-03-14T06:16:43.422Z,97303.22
2023-03-14T06:17:46.456Z,97306.81
2023-03-14T06:18:50.141Z,97302.53
2023-03-14T06:19:56.901Z,97295.25
2023-03-14T06:20:59.349Z,97301.94
2023-03-14T06:22:02.717Z,97299.44
2023-03-14T06:23:07.727Z,97298.06
2023-03-14T06:24:10.016Z,97307.59
2023-03-14T06:25:17.822Z,97310.13
2023-03-14T06:26:23.992Z,97304.06
2023-03-14T06:27:26.298Z,97297.88
2023-03-14T06:28:31.252Z,97301.03
2023-03-14T06:29:36.310Z,97301.53
2023-03-14T06:30:39.076Z,97305.72
2023-03-14T06:31:43.835Z,97300.28
2023-03-14T06:32:51.170Z,97302.09
2023-03-14T06:33:57.237Z,97293.78
2023-03-14T06:35:03.832Z,97298.19
2023-03-14T06:36:11.276Z,97302.03
2023-03-14T06:37:19.922Z,97309.34
2023-03-14T06:38:24.560Z,97303.34
2023-03-14T06:39:30.201Z,97302.31
2023-03-14T06:40:40.001Z,97303.16
2023-03-14T06:41:46.911Z,97305.53
2023-03-14T06:42:52.586Z,97298.41
2023-03-14T06:43:57.018Z,97306.28
2023-03-14T06:44:59.450Z,97300.47
2023-03-14T06:46:02.989Z,97309.19
2023-03-14T06:47:08.260Z,97299.13
2023-03-14T06:48:16.751Z,97297.38
2023-03-14T06:49:26.695Z,97307.03
2023-03-14T06:50:31.085Z,97309.41
2023-03-14T06:51:35.532Z,97304.53
2023-03-14T06:52:48.580Z,97315.75
2023-03-14T06:54:21.444Z,97318.88
2023-03-14T06:55:23.759Z,97315.03
2023-03-14T06:56:26.875Z,97321.38
2023-03-14T06:57:31.081Z,97319.16
2023-03-14T06:58:33.599Z,97323.13
2023-03-14T06:59:37.462Z,97329.44
2023-03-14T07:00:39.915Z,97317.06
2023-03-14T07:01:42.403Z,97323.50
2023-03-14T07:02:47.132Z,97319.56
2023-03-14T07:04:03.869Z,97318.22
2023-03-14T07:05:07.235Z,97317.25
2023-03-14T07:06:13.478Z,97330.88
2023-03-14T07:07:17.950Z,97335.31
2023-03-14T07:08:23.421Z,97328.72
2023-03-14T07:09:25.741Z,97335.38
2023-03-14T07:10:34.559Z,97335.47
2023-03-14T07:11:36.886Z,97332.16
2023-03-14T07:12:42.219Z,97340.50
2023-03-14T07:13:44.963Z,97335.13
2023-03-14T07:14:47.996Z,97339.16
2023-03-14T07:15:51.464Z,97346.47
2023-03-14T07:16:54.817Z,97330.22
2023-03-14T07:17:57.708Z,97335.94
2023-03-14T07:19:04.615Z,97347.56
2023-03-14T07:20:10.133Z,97344.94
2023-03-14T07:21:13.461Z,97338.34
2023-03-14T07:22:16.229Z,97341.34
2023-03-14T07:23:18.661Z,97351.22
2023-03-14T07:24:24.872Z,97348.03
2023-03-14T07:25:27.528Z,97341.22
2023-03-14T07:26:30.102Z,97345.06
2023-03-14T07:27:32.495Z,97345.31
2023-03-14T07:28:34.831Z,97344.81
2023-03-14T07:29:44.947Z,97350.59
2023-03-14T07:30:48.727Z,97361.31
2023-03-14T07:31:56.316Z,97356.88
2023-03-14T07:32:58.932Z,97347.09
2023-03-14T07:34:01.799Z,97352.00
2023-03-14T07:35:08.819Z,97365.03
2023-03-14T07:36:14.122Z,97364.06
2023-03-14T07:37:19.443Z,97361.06
2023-03-14T07:38:22.904Z,97363.19
2023-03-14T07:39:51.683Z,97355.91
2023-03-14T07:41:02.373Z,97359.19
2023-03-14T07:42:07.059Z,97365.63
2023-03-14T07:43:29.532Z,97361.47
2023-03-14T07:44:36.404Z,97363.94
2023-03-14T07:45:43.063Z,97361.44
2023-03-14T07:46:46.017Z,97365.34
2023-03-14T07:47:48.420Z,97365.28
2023-03-14T07:48:50.863Z,97352.97
2023-03-14T07:49:53.303Z,97362.66
2023-03-14T07:50:56.554Z,97365.50
2023-03-14T07:52:00.016Z,97360.72
2023-03-14T07:53:02.297Z,97356.22
2023-03-14T07:54:04.630Z,97354.66
2023-03-14T07:55:07.338Z,97365.78
2023-03-14T07:56:09.808Z,97360.50
2023-03-14T07:57:12.077Z,97350.00
2023-03-14T07:58:15.347Z,97364.94
2023-03-14T07:59:17.874Z,97354.78
2023-03-14T08:00:20.816Z,97359.47
2023-03-14T08:01:23.016Z,97361.25
2023-03-14T08:02:25.623Z,97362.81
2023-03-14T08:03:28.005Z,97361.75
2023-03-14T08:04:30.565Z,97362.00
2023-03-14T08:05:36.988Z,97353.41
2023-03-14T08:06:39.388Z,97362.09
2023-03-14T08:07:44.211Z,97356.22
2023-03-14T08:08:46.576Z,97350.53
2023-03-14T08:09:48.929Z,97349.81
2023-03-14T08:10:51.225Z,97348.72
2023-03-14T08:11:53.567Z,97348.38
2023-03-14T08:12:57.665Z,97349.91
2023-03-14T08:13:59.965Z,97340.72
2023-03-14T08:15:05.238Z,97342.53
2023-03-14T08:16:08.058Z,97340.59
2023-03-14T08:17:10.282Z,97345.75
2023-03-14T08:18:12.586Z,97340.50
2023-03-14T08:19:15.314Z,97354.38
2023-03-14T08:20:18.869Z,97340.38
2023-03-14T08:21:21.135Z,97338.81
2023-03-14T08:22:23.351Z,97346.34
2023-03-14T08:23:25.670Z,97344.84
2023-03-14T08:24:28.023Z,97342.78
2023-03-14T08:25:30.692Z,97336.31
2023-03-14T08:26:33.225Z,97347.41
2023-03-14T08:27:36.124Z,97341.13
2023-03-14T08:28:38.378Z,97344.19
2023-03-14T08:29:42.614Z,97343.13
2023-03-14T08:30:47.749Z,97347.19
2023-03-14T08:31:50.611Z,97342.66
2023-03-14T08:32:52.986Z,97349.47
2023-03-14T08:33:55.957Z,97364.91
2023-03-14T08:34:58.513Z,97369.19
2023-03-14T08:36:02.248Z,97360.56
2023-03-14T08:37:10.857Z,97360.84
2023-03-14T08:38:18.806Z,97368.34
2023-03-14T08:39:22.074Z,97366.09
2023-03-14T08:40:25.373Z,97347.41
2023-03-14T08:41:27.769Z,97367.03
2023-03-14T08:42:29.976Z,97366.00
2023-03-14T08:43:32.354Z,97375.38
2023-03-14T08:44:34.739Z,97368.81
2023-03-14T08:45:37.007Z,97370.59
2023-03-14T08:46:39.478Z,97373.94
2023-03-14T08:47:41.851Z,97372.28
2023-03-14T08:48:44.068Z,97381.69
2023-03-14T08:49:46.392Z,97358.16
2023-03-14T08:50:48.952Z,97372.47
2023-03-14T08:51:51.243Z,97364.44
2023-03-14T08:52:53.829Z,97368.06
2023-03-14T08:53:56.509Z,97370.91
2023-03-14T08:54:58.964Z,97370.88
2023-03-14T08:56:01.332Z,97358.00
2023-03-14T08:57:03.698Z,97373.28
2023-03-14T08:58:05.961Z,97376.78
2023-03-14T08:59:09.148Z,97380.03
2023-03-14T09:00:13.448Z,97370.28
2023-03-14T09:01:15.876Z,97374.88
2023-03-14T09:02:18.254Z,97375.22
2023-03-14T09:03:24.866Z,97365.47
2023-03-14T09:04:28.298Z,97372.41
2023-03-14T09:05:35.178Z,97384.75
2023-03-14T09:06:38.057Z,97377.22
2023-03-14T09:07:43.830Z,97367.88
2023-03-14T09:08:46.711Z,97392.03
2023-03-14T09:09:49.341Z,97379.94
2023-03-14T09:10:51.613Z,97383.66
2023-03-14T09:11:54.397Z,97385.72
2023-03-14T09:12:57.960Z,97391.09
2023-03-14T09:14:00.847Z,97385.34
2023-03-14T09:15:03.389Z,97397.25
2023-03-14T09:16:06.598Z,97395.19
2023-03-14T09:17:08.938Z,97384.59
2023-03-14T09:18:11.541Z,97402.75
2023-03-14T09:19:13.867Z,97400.91
2023-03-14T09:20:16.448Z,97402.16
2023-03-14T09:21:18.659Z,97405.59
2023-03-14T09:22:21.461Z,97393.88
2023-03-14T09:23:23.821Z,97405.50
2023-03-14T09:24:26.195Z,97404.06
2023-03-14T09:25:28.539Z,97407.44
2023-03-14T09:26:30.929Z,97416.63
2023-03-14T09:27:33.283Z,97420.31
2023-03-14T09:28:35.767Z,97411.34
2023-03-14T09:29:38.128Z,97412.66
2023-03-14T09:30:40.570Z,97415.88
2023-03-14T09:31:42.880Z,97412.88
2023-03-14T09:32:45.430Z,97404.72
2023-03-14T09:33:47.747Z,97416.34
2023-03-14T09:34:50.076Z,97403.31
2023-03-14T09:35:52.419Z,97408.47
2023-03-14T09:36:54.802Z,97414.59
2023-03-14T09:37:57.121Z,97407.41
2023-03-14T09:38:59.433Z,97408.50
2023-03-14T09:40:02.253Z,97405.72
2023-03-14T09:41:14.159Z,97420.69
2023-03-14T09:42:21.410Z,97415.31
2023-03-14T09:43:25.844Z,97420.56
2023-03-14T09:44:38.548Z,97412.25
2023-03-14T09:45:44.005Z,97417.25
2023-03-14T09:46:51.547Z,97407.91
2023-03-14T09:47:59.549Z,97409.41
2023-03-14T09:49:03.123Z,97409.63
2023-03-14T09:50:10.596Z,97415.34
2023-03-14T09:51:17.384Z,97415.47
2023-03-14T09:52:31.241Z,97415.47
2023-03-14T09:53:46.452Z,97416.78
2023-03-14T09:54:53.077Z,97408.56
2023-03-14T09:55:58.765Z,97403.16
2023-03-14T09:57:01.253Z,97412.25
2023-03-14T09:58:12.327Z,97418.72
2023-03-14T09:59:15.136Z,97422.06
2023-03-14T10:00:24.149Z,97425.28
2023-03-14T10:01:32.725Z,97426.84
2023-03-14T10:02:36.759Z,97422.53
2023-03-14T10:03:39.139Z,97418.22
2023-03-14T10:04:45.366Z,97419.19
2023-03-14T10:05:47.816Z,97426.38
2023-03-14T10:06:50.150Z,97427.06
2023-03-14T10:07:55.273Z,97429.41
2023-03-14T10:08:58.263Z,97424.22
2023-03-14T10:10:01.063Z,97440.44
2023-03-14T10:11:03.983Z,97437.66
2023-03-14T10:12:09.547Z,97439.06
2023-03-14T10:13:25.225Z,97445.63
2023-03-14T10:14:49.008Z,97433.56
2023-03-14T10:16:07.288Z,97443.13
2023-03-14T10:17:13.845Z,97457.28
2023-03-14T10:18:16.417Z,97448.19
2023-03-14T10:19:18.837Z,97443.59
2023-03-14T10:20:38.635Z,97447.56
2023-03-14T10:21:43.372Z,97444.81
2023-03-14T10:22:46.540Z,97444.34
2023-03-14T10:23:49.904Z,97447.16
2023-03-14T10:24:56.991Z,97446.66
2023-03-14T10:26:14.020Z,97437.13
2023-03-14T10:27:28.457Z,97444.78
2023-03-14T10:28:34.809Z,97439.53
2023-03-14T10:29:53.609Z,97448.41
2023-03-14T10:30:57.183Z,97445.88
2023-03-14T10:32:10.732Z,97434.88
2023-03-14T10:33:25.056Z,97441.53
2023-03-14T10:34:31.028Z,97434.25
2023-03-14T10:35:35.265Z,97439.75
2023-03-14T10:36:37.539Z,97441.66
2023-03-14T10:38:00.938Z,97441.28
2023-03-14T10:39:40.251Z,97433.19
2023-03-14T10:40:53.685Z,97438.00
2023-03-14T10:42:04.719Z,97445.69
2023-03-14T10:43:14.685Z,97451.59
2023-03-14T10:44:23.721Z,97454.19
2023-03-14T10:45:36.476Z,97447.41
2023-03-14T10:46:39.218Z,97442.66
2023-03-14T10:48:08.446Z,97461.47
2023-03-14T10:49:29.756Z,97457.81
2023-03-14T10:50:32.518Z,97459.44
2023-03-14T10:51:35.109Z,97455.63
2023-03-14T10:53:02.036Z,97450.59
2023-03-14T10:54:15.842Z,97453.84
2023-03-14T10:55:18.892Z,97455.03
2023-03-14T10:56:23.581Z,97465.28
2023-03-14T10:57:28.032Z,97452.63
2023-03-14T10:58:35.974Z,97457.03
2023-03-14T10:59:42.646Z,97471.97
2023-03-14T11:00:48.971Z,97469.28
2023-03-14T11:02:04.424Z,97468.84
2023-03-14T11:03:12.707Z,97468.28
2023-03-14T11:04:38.689Z,97462.16
2023-03-14T11:06:08.199Z,97467.38
2023-03-14T11:07:17.708Z,97472.34
2023-03-14T11:08:28.249Z,97459.69
2023-03-14T11:09:57.565Z,97475.25
2023-03-14T11:11:15.046Z,97489.22
2023-03-14T11:12:51.117Z,97483.41
2023-03-14T11:14:00.927Z,97486.16
2023-03-14T11:15:31.893Z,97488.59
2023-03-14T11:17:18.510Z,97477.91
2023-03-14T11:18:48.619Z,97482.19
2023-03-14T11:20:22.820Z,97487.75
2023-03-14T11:21:45.983Z,97488.09
2023-03-14T11:22:57.671Z,97500.66
2023-03-14T11:24:21.381Z,97494.69
2023-03-14T11:25:59.330Z,97501.69
2023-03-14T11:27:23.236Z,97498.44
2023-03-14T11:28:41.148Z,97499.78
2023-03-14T11:29:52.556Z,97508.31
2023-03-14T11:31:01.899Z,97508.72
2023-03-14T11:32:14.488Z,97520.06
2023-03-14T11:33:33.724Z,97506.75
2023-03-14T11:34:54.738Z,97520.78
2023-03-14T11:36:07.802Z,97517.53
2023-03-14T11:37:22.824Z,97521.63
2023-03-14T11:38:49.234Z,97524.69
2023-03-14T11:40:06.362Z,97510.00
2023-03-14T11:41:17.303Z,97516.06
2023-03-14T11:42:21.685Z,97527.81
2023-03-14T11:43:30.396Z,97534.81
2023-03-14T11:44:40.600Z,97522.66
2023-03-14T11:45:44.383Z,97518.28
2023-03-14T11:47:05.525Z,97525.13
2023-03-14T11:48:08.342Z,97522.16
2023-03-14T11:49:31.795Z,97537.06
2023-03-14T11:50:37.696Z,97537.84
